Terminal Aerodrome Forecast
Issued by NWS

Home | Current Version | Previous Version | Text Only | Print | Product List | Glossary On
Versions: 1 2 3 4 5 6 7 8 9 10 11 12 13 14 15
000
FTUS43 KPAH 041120
TAFCGI
TAF
KCGI 041120Z 0412/0512 00000KT 3SM BR MIFG FEW250
     FM041330 VRB03KT 6SM HZ FEW050
     FM050700 00000KT 1SM BR SKC=

USA.gov is the U.S. government's official web portal to all federal, state and local government web resources and services.